createdAt,value
2022-12-25T00:01:10.554Z,101541.38
2022-12-25T00:03:38.052Z,101538.03
2022-12-25T00:06:05.330Z,101540.59
2022-12-25T00:08:32.404Z,101544.34
2022-12-25T00:11:00.913Z,101536.16
2022-12-25T00:13:28.111Z,101525.38
2022-12-25T00:15:54.943Z,101513.84
2022-12-25T00:18:22.280Z,101507.50
2022-12-25T00:20:59.697Z,101518.69
2022-12-25T00:23:27.508Z,101513.19
2022-12-25T00:25:54.700Z,101520.09
2022-12-25T00:28:22.683Z,101527.41
2022-12-25T00:30:49.420Z,101521.25
2022-12-25T00:33:16.128Z,101521.44
2022-12-25T00:35:42.966Z,101529.53
2022-12-25T00:38:09.827Z,101524.75
2022-12-25T00:40:43.511Z,101513.97
2022-12-25T00:43:10.148Z,101513.06
2022-12-25T00:45:36.560Z,101524.75
2022-12-25T00:48:03.761Z,101521.31
2022-12-25T00:50:30.399Z,101526.44
2022-12-25T00:52:56.830Z,101526.44
2022-12-25T00:55:23.306Z,101531.47
2022-12-25T00:57:49.666Z,101532.00
2022-12-25T01:00:16.281Z,101533.50
2022-12-25T01:02:42.778Z,101534.44
2022-12-25T01:05:09.581Z,101531.75
2022-12-25T01:07:35.931Z,101535.44
2022-12-25T01:10:02.266Z,101524.66
2022-12-25T01:12:29.430Z,101520.84
2022-12-25T01:14:55.951Z,101531.31
2022-12-25T01:17:22.478Z,101532.06
2022-12-25T01:19:48.859Z,101537.34
2022-12-25T01:22:15.911Z,101544.03
2022-12-25T01:24:43.710Z,101545.13
2022-12-25T01:27:11.048Z,101548.56
2022-12-25T01:29:38.559Z,101544.28
2022-12-25T01:32:05.601Z,101543.19
2022-12-25T01:34:32.560Z,101549.09
2022-12-25T01:36:59.201Z,101547.16
2022-12-25T01:39:25.616Z,101536.63
2022-12-25T01:41:51.968Z,101539.81
2022-12-25T01:44:18.259Z,101535.16
2022-12-25T01:46:45.232Z,101529.25
2022-12-25T01:49:16.487Z,101530.44
2022-12-25T01:51:54.057Z,101524.19
2022-12-25T01:54:26.050Z,101528.50
2022-12-25T01:56:55.214Z,101540.16
2022-12-25T01:59:23.519Z,101549.69
2022-12-25T02:01:50.535Z,101545.75
2022-12-25T02:04:43.123Z,101554.84
2022-12-25T02:07:21.959Z,101543.66
2022-12-25T02:09:48.611Z,101544.84
2022-12-25T02:12:20.125Z,101535.78
2022-12-25T02:14:48.821Z,101536.22
2022-12-25T02:17:28.753Z,101546.44
2022-12-25T02:20:04.380Z,101548.63
2022-12-25T02:23:08.015Z,101550.97
2022-12-25T02:25:53.294Z,101546.91
2022-12-25T02:28:30.107Z,101540.88
2022-12-25T02:31:13.474Z,101543.88
2022-12-25T02:33:48.679Z,101540.66
2022-12-25T02:36:21.893Z,101535.38
2022-12-25T02:38:54.147Z,101543.47
2022-12-25T02:41:20.647Z,101545.75
2022-12-25T02:43:47.341Z,101536.69
2022-12-25T02:46:18.892Z,101543.47
2022-12-25T02:48:50.556Z,101539.06
2022-12-25T02:51:20.490Z,101529.66
2022-12-25T02:53:48.531Z,101526.00
2022-12-25T02:56:15.250Z,101524.28
2022-12-25T02:58:42.945Z,101520.91
2022-12-25T03:01:14.378Z,101515.81
2022-12-25T03:03:42.794Z,101517.47
2022-12-25T03:06:10.719Z,101502.16
2022-12-25T03:08:41.445Z,101495.66
2022-12-25T03:11:09.034Z,101495.22
2022-12-25T03:13:39.897Z,101475.47
2022-12-25T03:16:07.338Z,101485.22
2022-12-25T03:18:34.396Z,101472.22
2022-12-25T03:21:01.571Z,101468.94
2022-12-25T03:23:31.872Z,101465.34
2022-12-25T03:25:58.406Z,101454.69
2022-12-25T03:28:25.146Z,101463.53
2022-12-25T03:31:14.955Z,101476.91
2022-12-25T03:33:45.686Z,101477.78
2022-12-25T03:36:54.432Z,101471.63
2022-12-25T03:39:33.404Z,101468.94
2022-12-25T03:42:02.408Z,101468.94
2022-12-25T03:44:39.572Z,101474.31
2022-12-25T03:47:16.038Z,101464.53
2022-12-25T03:49:58.827Z,101469.16
2022-12-25T03:52:27.211Z,101465.84
2022-12-25T03:54:56.634Z,101470.03
2022-12-25T03:57:23.002Z,101474.78
2022-12-25T03:59:49.503Z,101476.00
2022-12-25T04:02:15.970Z,101474.50
2022-12-25T04:04:42.819Z,101469.34
2022-12-25T04:07:09.439Z,101462.66
2022-12-25T04:09:35.857Z,101453.50
2022-12-25T04:12:03.231Z,101467.63
2022-12-25T04:14:30.005Z,101466.75
2022-12-25T04:16:56.370Z,101461.97
2022-12-25T04:19:24.346Z,101462.28
2022-12-25T04:21:50.885Z,101459.56
2022-12-25T04:24:17.335Z,101464.56
2022-12-25T04:26:43.859Z,101470.41
2022-12-25T04:29:10.286Z,101478.16
2022-12-25T04:31:36.858Z,101482.16
2022-12-25T04:34:03.347Z,101484.97
2022-12-25T04:36:30.097Z,101481.31
2022-12-25T04:38:56.511Z,101469.78
2022-12-25T04:41:22.878Z,101465.81
2022-12-25T04:43:49.259Z,101466.56
2022-12-25T04:46:15.731Z,101465.56
2022-12-25T04:48:42.092Z,101476.34
2022-12-25T04:51:18.062Z,101479.16
2022-12-25T04:53:45.416Z,101466.16
2022-12-25T04:56:12.043Z,101464.28
2022-12-25T04:58:38.905Z,101466.69
2022-12-25T05:01:05.642Z,101460.56
2022-12-25T05:03:32.606Z,101458.31
2022-12-25T05:05:59.704Z,101450.13
2022-12-25T05:08:27.927Z,101439.47
2022-12-25T05:10:54.341Z,101459.06
2022-12-25T05:13:20.884Z,101452.94
2022-12-25T05:15:47.590Z,101459.25
2022-12-25T05:18:14.585Z,101443.22
2022-12-25T05:20:41.197Z,101439.69
2022-12-25T05:23:11.207Z,101424.06
2022-12-25T05:25:40.919Z,101421.78
2022-12-25T05:28:07.742Z,101425.34
2022-12-25T05:30:34.923Z,101425.34
2022-12-25T05:33:02.173Z,101418.22
2022-12-25T05:35:28.759Z,101398.94
2022-12-25T05:37:55.447Z,101407.53
2022-12-25T05:40:21.884Z,101403.88
2022-12-25T05:42:48.365Z,101407.19
2022-12-25T05:45:14.703Z,101411.75
2022-12-25T05:47:43.969Z,101416.78
2022-12-25T05:50:12.679Z,101409.06
2022-12-25T05:52:39.242Z,101412.81
2022-12-25T05:55:06.000Z,101410.41
2022-12-25T05:57:32.707Z,101413.22
2022-12-25T05:59:59.570Z,101419.13
2022-12-25T06:02:26.625Z,101418.94
2022-12-25T06:04:53.437Z,101415.59
2022-12-25T06:07:19.947Z,101394.25
2022-12-25T06:09:46.755Z,101392.50
2022-12-25T06:12:13.072Z,101388.44
2022-12-25T06:14:39.438Z,101383.56
2022-12-25T06:17:06.147Z,101375.81
2022-12-25T06:19:32.706Z,101384.63
2022-12-25T06:21:59.117Z,101377.06
2022-12-25T06:24:25.531Z,101390.44
2022-12-25T06:26:52.270Z,101398.19
2022-12-25T06:29:18.600Z,101392.56
2022-12-25T06:31:45.170Z,101398.81
2022-12-25T06:34:12.016Z,101399.44
2022-12-25T06:36:38.547Z,101392.81
2022-12-25T06:39:05.001Z,101389.06
2022-12-25T06:41:33.727Z,101381.72
2022-12-25T06:44:01.290Z,101380.50
2022-12-25T06:46:29.589Z,101370.81
2022-12-25T06:48:58.098Z,101372.66
2022-12-25T06:51:27.250Z,101368.25
2022-12-25T06:53:54.628Z,101376.84
2022-12-25T06:56:24.423Z,101370.47
2022-12-25T06:58:57.769Z,101347.50
2022-12-25T07:01:43.767Z,101356.84
2022-12-25T07:04:15.861Z,101344.63
2022-12-25T07:06:42.443Z,101357.84
2022-12-25T07:09:09.157Z,101354.16
2022-12-25T07:11:36.363Z,101356.84
2022-12-25T07:14:02.929Z,101351.72
2022-12-25T07:16:29.606Z,101358.22
2022-12-25T07:18:57.042Z,101365.06
2022-12-25T07:21:23.479Z,101352.47
2022-12-25T07:23:51.051Z,101380.16
2022-12-25T07:26:17.960Z,101381.13
2022-12-25T07:28:44.720Z,101367.34
2022-12-25T07:31:14.070Z,101366.34
2022-12-25T07:33:41.315Z,101380.84
2022-12-25T07:36:12.667Z,101376.28
2022-12-25T07:38:41.249Z,101366.69
2022-12-25T07:41:09.394Z,101363.66
2022-12-25T07:43:35.856Z,101358.50
2022-12-25T07:46:02.333Z,101375.59
2022-12-25T07:48:29.271Z,101373.69
2022-12-25T07:51:04.612Z,101386.34
2022-12-25T07:53:31.888Z,101397.19
2022-12-25T07:55:59.903Z,101397.97
2022-12-25T07:58:26.930Z,101380.09
2022-12-25T08:00:53.368Z,101375.84
2022-12-25T08:03:20.118Z,101373.91
2022-12-25T08:05:46.744Z,101383.66
2022-12-25T08:08:13.325Z,101397.00
2022-12-25T08:10:45.631Z,101393.56
2022-12-25T08:13:14.632Z,101399.69
2022-12-25T08:15:42.070Z,101410.38
2022-12-25T08:18:08.778Z,101422.00
2022-12-25T08:20:36.125Z,101412.06
2022-12-25T08:23:03.543Z,101419.28
2022-12-25T08:25:30.113Z,101422.75
2022-12-25T08:27:56.829Z,101416.59
2022-12-25T08:30:23.281Z,101407.78
2022-12-25T08:32:50.014Z,101412.94
2022-12-25T08:35:16.539Z,101409.13
2022-12-25T08:37:43.217Z,101405.59
2022-12-25T08:40:13.341Z,101418.09
2022-12-25T08:42:39.940Z,101404.50
2022-12-25T08:45:08.541Z,101393.81
2022-12-25T08:47:34.998Z,101393.81
2022-12-25T08:50:01.615Z,101391.63
2022-12-25T08:52:30.083Z,101385.28
2022-12-25T08:54:56.383Z,101379.16
2022-12-25T08:57:23.018Z,101388.81
2022-12-25T08:59:49.503Z,101394.09
2022-12-25T09:02:17.193Z,101392.16
2022-12-25T09:04:46.381Z,101382.09
2022-12-25T09:07:13.218Z,101388.25
2022-12-25T09:09:39.677Z,101381.13
2022-12-25T09:12:06.362Z,101375.63
2022-12-25T09:14:32.902Z,101366.69
2022-12-25T09:17:01.089Z,101387.03
2022-12-25T09:19:28.977Z,101385.06
2022-12-25T09:21:56.704Z,101394.16
2022-12-25T09:24:24.485Z,101396.84
2022-12-25T09:26:52.815Z,101391.44
2022-12-25T09:29:19.262Z,101407.41
2022-12-25T09:31:45.969Z,101408.25
2022-12-25T09:34:17.271Z,101406.19
2022-12-25T09:36:45.463Z,101420.19
2022-12-25T09:39:14.542Z,101416.88
2022-12-25T09:42:05.316Z,101435.63
2022-12-25T09:44:41.680Z,101412.09
2022-12-25T09:47:16.185Z,101387.69
2022-12-25T09:50:06.841Z,101382.28
2022-12-25T09:52:46.223Z,101389.28
2022-12-25T09:55:25.426Z,101386.56
2022-12-25T09:57:58.562Z,101388.31
2022-12-25T10:00:31.941Z,101384.50
2022-12-25T10:03:23.391Z,101363.78
2022-12-25T10:06:13.354Z,101374.47
2022-12-25T10:09:02.384Z,101363.91
2022-12-25T10:11:50.174Z,101376.41
2022-12-25T10:14:30.880Z,101370.81
2022-12-25T10:17:12.868Z,101367.47
2022-12-25T10:20:15.785Z,101358.38
2022-12-25T10:22:50.748Z,101342.31
2022-12-25T10:25:21.702Z,101357.66
2022-12-25T10:28:00.604Z,101350.41
2022-12-25T10:30:28.254Z,101352.75
2022-12-25T10:32:56.624Z,101350.28
2022-12-25T10:35:29.869Z,101344.53
2022-12-25T10:38:06.778Z,101341.00
2022-12-25T10:41:10.855Z,101338.16
2022-12-25T10:43:41.513Z,101342.44
2022-12-25T10:46:09.686Z,101335.59
2022-12-25T10:48:41.818Z,101333.25
2022-12-25T10:51:08.452Z,101341.25
2022-12-25T10:53:42.928Z,101323.44
2022-12-25T10:56:19.561Z,101312.78
2022-12-25T10:58:45.866Z,101311.03
2022-12-25T11:01:13.336Z,101292.88
2022-12-25T11:03:44.168Z,101289.56
2022-12-25T11:06:30.683Z,101297.66
2022-12-25T11:08:59.400Z,101288.75
2022-12-25T11:11:28.162Z,101275.97
2022-12-25T11:13:58.770Z,101275.13
2022-12-25T11:16:26.648Z,101271.44
2022-12-25T11:18:54.546Z,101260.91
2022-12-25T11:21:25.660Z,101262.72
2022-12-25T11:24:04.056Z,101257.81
2022-12-25T11:26:35.878Z,101257.59
2022-12-25T11:29:03.135Z,101250.22
2022-12-25T11:31:39.416Z,101263.56
2022-12-25T11:34:33.673Z,101237.22
2022-12-25T11:37:02.579Z,101223.72
2022-12-25T11:39:32.515Z,101213.53
2022-12-25T11:42:06.409Z,101214.75
2022-12-25T11:44:36.383Z,101201.63
2022-12-25T11:47:08.181Z,101214.75
2022-12-25T11:49:45.840Z,101215.50
2022-12-25T11:52:18.537Z,101211.06
2022-12-25T11:54:55.489Z,101198.91
2022-12-25T11:57:26.584Z,101210.09
2022-12-25T12:00:03.184Z,101217.34
2022-12-25T12:02:39.077Z,101216.47
2022-12-25T12:05:14.139Z,101211.19
2022-12-25T12:08:00.635Z,101212.91
2022-12-25T12:10:35.599Z,101206.53
2022-12-25T12:13:26.555Z,101216.47
2022-12-25T12:15:52.995Z,101213.28
2022-12-25T12:18:33.335Z,101201.47
2022-12-25T12:21:05.383Z,101195.75
2022-12-25T12:23:36.668Z,101190.59
2022-12-25T12:26:04.790Z,101178.81
2022-12-25T12:28:46.015Z,101184.69
2022-12-25T12:31:14.206Z,101193.66
2022-12-25T12:33:54.294Z,101185.28
2022-12-25T12:36:34.388Z,101171.44
2022-12-25T12:39:01.681Z,101168.41
2022-12-25T12:41:47.554Z,101177.47
2022-12-25T12:44:17.300Z,101156.13
2022-12-25T12:46:56.577Z,101152.81
2022-12-25T12:49:31.397Z,101172.31
2022-12-25T12:52:27.536Z,101175.63
2022-12-25T12:55:00.546Z,101170.72
2022-12-25T12:57:29.804Z,101174.41
2022-12-25T12:59:58.982Z,101171.56
2022-12-25T13:02:45.512Z,101172.56
2022-12-25T13:05:38.194Z,101166.44
2022-12-25T13:08:16.220Z,101152.22
2022-12-25T13:10:50.271Z,101150.25
2022-12-25T13:13:36.587Z,101140.31
2022-12-25T13:16:05.861Z,101130.75
2022-12-25T13:18:33.823Z,101134.06
2022-12-25T13:21:04.886Z,101124.25
2022-12-25T13:23:35.009Z,101123.25
2022-12-25T13:26:12.025Z,101124.13
2022-12-25T13:28:39.095Z,101127.78
2022-12-25T13:31:17.382Z,101115.28
2022-12-25T13:33:49.142Z,101123.13
2022-12-25T13:36:15.780Z,101120.44
2022-12-25T13:38:46.888Z,101113.94
2022-12-25T13:41:20.337Z,101105.38
2022-12-25T13:43:48.789Z,101106.53
2022-12-25T13:46:16.350Z,101104.59
2022-12-25T13:48:43.084Z,101098.59
2022-12-25T13:51:15.846Z,101104.72
2022-12-25T13:53:43.491Z,101115.38
2022-12-25T13:56:15.873Z,101115.38
2022-12-25T13:58:49.091Z,101097.34
2022-12-25T14:01:16.219Z,101101.75
2022-12-25T14:03:45.856Z,101096.34
2022-12-25T14:06:15.146Z,101095.25
2022-12-25T14:08:42.283Z,101089.13
2022-12-25T14:11:15.394Z,101092.81
2022-12-25T14:13:45.293Z,101099.78
2022-12-25T14:16:17.020Z,101099.78
2022-12-25T14:18:52.826Z,101101.75
2022-12-25T14:21:30.337Z,101098.91
2022-12-25T14:23:57.240Z,101092.09
2022-12-25T14:26:30.179Z,101108.28
2022-12-25T14:29:05.775Z,101098.22
2022-12-25T14:31:34.265Z,101088.38
2022-12-25T14:34:10.155Z,101096.34
2022-12-25T14:36:38.599Z,101099.19
2022-12-25T14:39:22.585Z,101097.22
2022-12-25T14:41:53.759Z,101079.19
2022-12-25T14:44:40.906Z,101071.47
2022-12-25T14:47:10.511Z,101084.59
2022-12-25T14:49:38.620Z,101073.31
2022-12-25T14:52:31.330Z,101069.38
2022-12-25T14:55:01.791Z,101071.34
2022-12-25T14:57:38.724Z,101075.28
2022-12-25T15:00:09.093Z,101077.72
2022-12-25T15:02:42.620Z,101074.16
2022-12-25T15:05:29.229Z,101080.69
2022-12-25T15:08:10.705Z,101091.09
2022-12-25T15:13:25.926Z,101064.75
2022-12-25T15:16:13.086Z,101067.47
2022-12-25T15:18:45.617Z,101084.34
2022-12-25T15:21:17.117Z,101086.22
2022-12-25T15:23:44.169Z,101081.78
2022-12-25T15:26:14.551Z,101088.19
2022-12-25T15:28:41.849Z,101086.22
2022-12-25T15:31:19.031Z,101080.09
2022-12-25T15:33:45.482Z,101089.88
2022-12-25T15:36:11.899Z,101089.03
2022-12-25T15:38:38.615Z,101084.63
2022-12-25T15:41:22.266Z,101081.19
2022-12-25T15:43:52.677Z,101083.66
2022-12-25T15:46:19.202Z,101062.66
2022-12-25T15:48:45.725Z,101066.47
2022-12-25T15:51:12.126Z,101070.16
2022-12-25T15:53:38.819Z,101071.72
2022-12-25T15:56:05.702Z,101072.00
2022-12-25T15:58:32.196Z,101069.03
2022-12-25T16:00:58.539Z,101051.13
2022-12-25T16:03:24.957Z,101036.91
2022-12-25T16:05:52.517Z,101037.78
2022-12-25T16:08:19.132Z,101044.28
2022-12-25T16:10:45.647Z,101062.75
2022-12-25T16:13:12.077Z,101061.19
2022-12-25T16:15:38.531Z,101065.72
2022-12-25T16:18:05.434Z,101058.63
2022-12-25T16:20:32.034Z,101061.94
2022-12-25T16:22:58.570Z,101071.00
2022-12-25T16:25:24.981Z,101065.72
2022-12-25T16:27:51.376Z,101062.41
2022-12-25T16:30:18.127Z,101066.84
2022-12-25T16:32:48.522Z,101065.00
2022-12-25T16:35:15.963Z,101059.13
2022-12-25T16:37:42.348Z,101048.31
2022-12-25T16:40:10.152Z,101035.84
2022-12-25T16:42:38.021Z,101037.53
2022-12-25T16:45:05.045Z,101029.44
2022-12-25T16:47:31.418Z,101017.81
2022-12-25T16:49:57.785Z,101021.25
2022-12-25T16:52:24.193Z,101029.44
2022-12-25T16:54:50.568Z,101028.59
2022-12-25T16:57:17.749Z,101033.00
2022-12-25T16:59:44.170Z,101039.41
2022-12-25T17:02:18.767Z,101041.84
2022-12-25T17:04:46.014Z,101048.31
2022-12-25T17:07:13.377Z,101037.66
2022-12-25T17:09:44.152Z,101026.03
2022-12-25T17:12:11.432Z,101020.66
2022-12-25T17:14:37.936Z,101027.25
2022-12-25T17:17:04.680Z,101026.53
2022-12-25T17:19:31.061Z,101031.94
2022-12-25T17:21:57.477Z,101036.72
2022-12-25T17:24:24.130Z,101035.63
2022-12-25T17:26:50.575Z,101038.44
2022-12-25T17:29:21.783Z,101038.31
2022-12-25T17:31:49.101Z,101037.31
2022-12-25T17:34:15.513Z,101033.75
2022-12-25T17:36:42.063Z,101031.06
2022-12-25T17:39:10.716Z,101034.75
2022-12-25T17:41:37.734Z,101027.66
2022-12-25T17:44:05.442Z,101022.50
2022-12-25T17:46:32.345Z,101029.22
2022-12-25T17:49:00.809Z,101034.88
2022-12-25T17:51:29.169Z,101045.69
2022-12-25T17:53:58.968Z,101049.34
2022-12-25T17:56:25.866Z,101043.13
2022-12-25T17:58:57.643Z,101046.16
2022-12-25T18:01:28.719Z,101037.47
2022-12-25T18:04:00.357Z,101029.38
2022-12-25T18:06:28.707Z,101027.81
2022-12-25T18:09:00.996Z,101023.41
2022-12-25T18:11:29.966Z,101020.13
2022-12-25T18:13:56.587Z,101015.69
2022-12-25T18:16:24.943Z,101008.59
2022-12-25T18:18:52.922Z,101017.50
2022-12-25T18:21:21.835Z,101005.28
2022-12-25T18:23:48.798Z,101006.03
2022-12-25T18:26:15.333Z,101010.06
2022-12-25T18:28:42.790Z,101006.38
2022-12-25T18:31:20.948Z,101014.59
2022-12-25T18:33:47.924Z,101020.72
2022-12-25T18:36:16.034Z,101020.34
2022-12-25T18:38:42.777Z,101017.66
2022-12-25T18:41:10.786Z,101021.06
2022-12-25T18:43:54.413Z,101030.91
2022-12-25T18:46:23.383Z,101025.50
2022-12-25T18:48:49.768Z,101034.31
2022-12-25T18:51:16.437Z,101040.69
2022-12-25T18:53:43.370Z,101022.56
2022-12-25T18:56:13.425Z,101026.94
2022-12-25T18:58:39.794Z,101025.38
2022-12-25T19:01:19.386Z,101017.28
2022-12-25T19:03:46.721Z,101016.41
2022-12-25T19:06:22.720Z,101008.31
2022-12-25T19:08:50.335Z,101006.72
2022-12-25T19:11:18.255Z,101018.38
2022-12-25T19:13:45.215Z,101014.59
2022-12-25T19:16:12.098Z,101018.03
2022-12-25T19:18:40.769Z,101009.78
2022-12-25T19:21:10.955Z,101005.25
2022-12-25T19:23:38.266Z,101011.38
2022-12-25T19:26:07.743Z,101008.06
2022-12-25T19:28:35.218Z,101012.38
2022-12-25T19:31:02.662Z,101009.53
2022-12-25T19:33:31.690Z,101015.06
2022-12-25T19:36:02.169Z,101015.78
2022-12-25T19:38:29.038Z,101018.38
2022-12-25T19:40:55.577Z,101016.75
2022-12-25T19:43:21.933Z,101018.72
2022-12-25T19:45:48.332Z,101017.75
2022-12-25T19:48:15.032Z,101029.16
2022-12-25T19:50:41.399Z,101029.03
2022-12-25T19:53:07.781Z,101031.84
2022-12-25T19:55:34.184Z,101036.47
2022-12-25T19:58:00.700Z,101033.75
2022-12-25T20:00:27.210Z,101034.63
2022-12-25T20:02:53.641Z,101029.22
2022-12-25T20:05:20.164Z,101029.97
2022-12-25T20:07:46.554Z,101034.50
2022-12-25T20:10:14.390Z,101037.94
2022-12-25T20:12:40.745Z,101030.84
2022-12-25T20:15:07.816Z,101042.59
2022-12-25T20:17:34.658Z,101028.84
2022-12-25T20:20:01.045Z,101040.75
2022-12-25T20:22:27.437Z,101040.75
2022-12-25T20:24:53.782Z,101031.78
2022-12-25T20:27:20.493Z,101048.22
2022-12-25T20:29:46.875Z,101038.53
2022-12-25T20:32:13.378Z,101036.56
2022-12-25T20:34:39.740Z,101026.88
2022-12-25T20:37:06.077Z,101032.53
2022-12-25T20:39:32.722Z,101031.44
2022-12-25T20:41:59.540Z,101029.44
2022-12-25T20:44:26.482Z,101036.94
2022-12-25T20:46:52.967Z,101029.44
2022-12-25T20:49:21.965Z,101027.00
2022-12-25T20:51:48.318Z,101043.19
2022-12-25T20:54:14.669Z,101045.75
2022-12-25T20:56:41.088Z,101039.53
2022-12-25T20:59:09.611Z,101041.97
2022-12-25T21:01:36.077Z,101050.06
2022-12-25T21:04:02.656Z,101044.66
2022-12-25T21:06:29.198Z,101053.63
2022-12-25T21:08:55.879Z,101049.94
2022-12-25T21:11:22.281Z,101043.53
2022-12-25T21:13:48.829Z,101047.97
2022-12-25T21:16:18.594Z,101055.06
2022-12-25T21:18:45.665Z,101049.66
2022-12-25T21:21:12.288Z,101052.22
2022-12-25T21:23:39.754Z,101058.84
2022-12-25T21:26:11.409Z,101051.72
2022-12-25T21:28:37.729Z,101055.63
2022-12-25T21:31:06.178Z,101063.47
2022-12-25T21:33:32.948Z,101064.69
2022-12-25T21:36:10.277Z,101083.00
2022-12-25T21:38:37.376Z,101078.06
2022-12-25T21:41:06.071Z,101087.16
2022-12-25T21:43:33.746Z,101086.28
2022-12-25T21:46:04.429Z,101086.03
2022-12-25T21:48:32.015Z,101084.53
2022-12-25T21:51:06.505Z,101103.06
2022-12-25T21:53:32.945Z,101095.47
2022-12-25T21:56:00.247Z,101093.38
2022-12-25T21:58:26.634Z,101086.88
2022-12-25T22:00:53.169Z,101081.59
2022-12-25T22:03:19.583Z,101094.22
2022-12-25T22:05:45.977Z,101081.84
2022-12-25T22:08:12.323Z,101096.94
2022-12-25T22:10:38.740Z,101095.94
2022-12-25T22:13:05.123Z,101090.28
2022-12-25T22:15:31.509Z,101096.41
2022-12-25T22:17:58.078Z,101102.28
2022-12-25T22:20:28.235Z,101098.00
2022-12-25T22:22:54.698Z,101098.00
2022-12-25T22:25:21.136Z,101101.94
2022-12-25T22:27:48.416Z,101090.63
2022-12-25T22:30:20.895Z,101102.13
2022-12-25T22:32:47.550Z,101109.47
2022-12-25T22:35:14.785Z,101094.63
2022-12-25T22:37:42.765Z,101077.13
2022-12-25T22:40:11.728Z,101080.81
2022-12-25T22:42:38.119Z,101070.25
2022-12-25T22:45:05.362Z,101063.50
2022-12-25T22:47:31.912Z,101067.91
2022-12-25T22:49:58.461Z,101083.22
2022-12-25T22:52:25.047Z,101083.97
2022-12-25T22:54:51.503Z,101062.38
2022-12-25T22:57:17.893Z,101064.72
2022-12-25T22:59:44.345Z,101065.53
2022-12-25T23:02:10.843Z,101070.00
2022-12-25T23:04:37.472Z,101093.81
2022-12-25T23:07:04.058Z,101101.16
2022-12-25T23:09:30.781Z,101083.47
2022-12-25T23:11:58.415Z,101096.97
2022-12-25T23:14:26.610Z,101082.31
2022-12-25T23:16:52.920Z,101079.75
2022-12-25T23:19:19.454Z,101075.09
2022-12-25T23:21:46.018Z,101082.47
2022-12-25T23:24:12.530Z,101061.00
2022-12-25T23:26:38.855Z,101060.13
2022-12-25T23:29:05.391Z,101061.00
2022-12-25T23:31:37.792Z,101068.56
2022-12-25T23:34:05.773Z,101059.88
2022-12-25T23:36:32.556Z,101081.56
2022-12-25T23:39:04.817Z,101091.63
2022-12-25T23:41:35.225Z,101091.28
2022-12-25T23:44:01.785Z,101087.34
2022-12-25T23:46:28.202Z,101091.13
2022-12-25T23:48:54.702Z,101102.56
2022-12-25T23:51:21.128Z,101090.06
2022-12-25T23:53:47.491Z,101086.50
2022-12-25T23:56:14.083Z,101103.56
2022-12-25T23:58:40.886Z,101091.63
